Time;durP1;ratioP1;P1;durP2;ratioP2;P2;SDS_P1;SDS_P2;PMS_P1;PMS_P2;Temp;Humidity;BMP_temperature;BMP_pressure;BME280_temperature;BME280_humidity;BME280_pressure;Samples;Min_cycle;Max_cycle;Signal;HPM_P1;HPM_P2
2021/07/19 00:00:23;;;;;;;7.55;5.45;;;21.20;91.90;;;;;;5042426;28;20452;-61
2021/07/19 00:02:49;;;;;;;9.73;5.90;;;21.30;92.00;;;;;;5040864;28;20609;-60
2021/07/19 00:05:16;;;;;;;8.43;6.18;;;21.10;92.20;;;;;;5025602;28;20108;-60
2021/07/19 00:07:42;;;;;;;7.78;5.72;;;21.00;92.30;;;;;;5042197;28;20139;-61
2021/07/19 00:10:10;;;;;;;8.65;5.85;;;21.00;92.40;;;;;;5044132;28;20038;-60
2021/07/19 00:12:36;;;;;;;9.32;5.63;;;20.90;92.50;;;;;;5043204;28;20086;-61
2021/07/19 00:15:05;;;;;;;7.15;5.47;;;20.80;92.70;;;;;;5041950;28;20032;-58
2021/07/19 00:17:31;;;;;;;9.10;5.55;;;20.80;92.90;;;;;;5041053;28;20017;-61
2021/07/19 00:19:56;;;;;;;9.30;5.60;;;20.70;92.80;;;;;;5043620;28;20087;-61
2021/07/19 00:22:22;;;;;;;9.45;5.65;;;20.80;92.90;;;;;;5040347;28;20017;-61
2021/07/19 00:24:48;;;;;;;8.90;5.50;;;20.80;92.90;;;;;;5042836;28;20057;-60
2021/07/19 00:27:14;;;;;;;7.25;5.63;;;20.70;93.00;;;;;;5022986;28;20040;-60
2021/07/19 00:29:40;;;;;;;8.05;5.68;;;20.70;93.20;;;;;;5042301;28;20480;-60
2021/07/19 00:32:06;;;;;;;8.70;5.38;;;20.70;93.10;;;;;;5042741;28;20040;-60
2021/07/19 00:34:33;;;;;;;9.45;6.35;;;20.60;93.10;;;;;;5041083;28;20029;-60
2021/07/19 00:36:58;;;;;;;7.22;5.75;;;20.50;93.40;;;;;;5042290;28;20040;-60
2021/07/19 00:39:25;;;;;;;7.03;5.72;;;20.40;93.40;;;;;;5042726;28;20116;-60
2021/07/19 00:41:52;;;;;;;7.15;5.55;;;20.40;93.50;;;;;;5041712;28;20187;-61
2021/07/19 00:44:20;;;;;;;11.43;6.32;;;20.20;93.20;;;;;;5007999;28;20515;-61
2021/07/19 00:46:47;;;;;;;8.00;5.45;;;20.10;93.30;;;;;;5041674;28;20041;-60
2021/07/19 00:49:13;;;;;;;8.05;6.00;;;20.10;93.20;;;;;;5039761;28;20095;-61
2021/07/19 00:51:41;;;;;;;8.20;5.82;;;20.10;93.20;;;;;;5041032;28;20022;-60
2021/07/19 00:54:09;;;;;;;7.93;6.30;;;20.10;93.20;;;;;;5026026;28;20107;-60
2021/07/19 00:56:37;;;;;;;8.88;6.40;;;20.00;93.30;;;;;;5040203;28;20034;-59
2021/07/19 00:59:03;;;;;;;11.10;6.13;;;19.90;93.30;;;;;;5042961;28;20037;-59
2021/07/19 01:01:30;;;;;;;8.57;5.30;;;19.80;93.20;;;;;;5043338;28;20026;-55
2021/07/19 01:03:59;;;;;;;13.27;5.85;;;19.80;93.20;;;;;;5040614;28;20082;-58
2021/07/19 01:06:28;;;;;;;8.73;5.65;;;19.80;93.10;;;;;;5039455;28;20086;-57
2021/07/19 01:08:55;;;;;;;8.85;5.75;;;19.70;93.30;;;;;;5042571;28;20377;-60
2021/07/19 01:11:21;;;;;;;7.38;5.95;;;19.70;93.30;;;;;;5041305;28;20036;-59
2021/07/19 01:13:50;;;;;;;7.57;6.03;;;19.60;93.40;;;;;;5042077;28;20405;-61
2021/07/19 01:16:16;;;;;;;8.10;6.18;;;19.60;93.50;;;;;;5039959;28;20125;-59
2021/07/19 01:18:42;;;;;;;8.95;5.93;;;19.50;93.60;;;;;;5043923;28;20075;-60
2021/07/19 01:21:16;;;;;;;8.15;6.47;;;19.40;93.70;;;;;;5043044;28;20033;-61
2021/07/19 01:23:42;;;;;;;10.07;6.32;;;19.50;93.70;;;;;;5042590;28;20036;-60
2021/07/19 01:26:13;;;;;;;8.40;6.30;;;19.50;93.70;;;;;;5041332;28;20026;-59
2021/07/19 01:28:48;;;;;;;8.75;6.40;;;19.40;93.70;;;;;;5042003;28;20064;-59
2021/07/19 01:31:17;;;;;;;9.25;6.60;;;19.40;93.70;;;;;;5042326;28;20117;-60
2021/07/19 01:33:47;;;;;;;10.10;6.32;;;19.40;93.80;;;;;;5040722;28;20737;-60
2021/07/19 01:36:22;;;;;;;7.38;5.90;;;19.30;93.80;;;;;;5039786;28;20081;-57
2021/07/19 01:38:48;;;;;;;8.25;6.32;;;19.30;94.00;;;;;;5025091;28;20028;-59
2021/07/19 01:41:17;;;;;;;8.98;6.78;;;19.30;93.80;;;;;;5041882;28;20025;-60
2021/07/19 01:43:45;;;;;;;11.90;7.10;;;19.20;93.90;;;;;;5041174;28;20030;-60
2021/07/19 01:46:13;;;;;;;11.77;7.40;;;19.10;93.90;;;;;;5022632;28;20048;-60
2021/07/19 01:48:39;;;;;;;9.85;6.85;;;18.90;94.30;;;;;;5041575;28;20028;-62
2021/07/19 01:51:05;;;;;;;9.27;7.32;;;19.10;93.90;;;;;;5041073;28;20029;-61
2021/07/19 01:53:32;;;;;;;9.77;7.22;;;19.10;93.80;;;;;;5044459;28;20451;-60
2021/07/19 01:55:59;;;;;;;8.20;6.40;;;18.90;93.90;;;;;;5041952;28;20030;-61
2021/07/19 01:58:26;;;;;;;10.65;6.68;;;19.00;94.00;;;;;;5042655;28;20036;-60
2021/07/19 02:00:53;;;;;;;8.57;7.50;;;19.00;94.00;;;;;;5039934;28;20032;-60
2021/07/19 02:03:18;;;;;;;9.75;7.93;;;18.80;94.10;;;;;;5041681;28;20477;-60
2021/07/19 02:05:45;;;;;;;10.13;8.10;;;18.80;94.00;;;;;;5042857;28;20051;-61
2021/07/19 02:08:15;;;;;;;11.10;8.30;;;18.70;93.80;;;;;;5043606;28;20052;-61
2021/07/19 02:10:42;;;;;;;14.63;8.45;;;18.60;93.70;;;;;;5045497;28;20083;-61
2021/07/19 02:13:10;;;;;;;9.90;7.90;;;18.50;93.80;;;;;;5045357;28;20052;-61
2021/07/19 02:15:37;;;;;;;12.90;8.40;;;18.50;94.00;;;;;;5045270;28;20031;-62
2021/07/19 02:18:04;;;;;;;11.27;8.55;;;18.40;94.00;;;;;;5043668;28;20480;-61
2021/07/19 02:20:32;;;;;;;11.80;9.13;;;18.40;94.00;;;;;;5045093;28;20025;-60
2021/07/19 02:23:01;;;;;;;10.75;8.75;;;18.60;93.70;;;;;;5045272;28;20032;-61
2021/07/19 02:25:27;;;;;;;10.38;8.60;;;18.60;93.60;;;;;;5027637;28;20039;-61
2021/07/19 02:27:54;;;;;;;12.30;8.63;;;18.60;93.40;;;;;;5043008;28;20029;-61
2021/07/19 02:30:22;;;;;;;14.18;8.63;;;18.60;93.40;;;;;;5044879;28;20021;-59
2021/07/19 02:32:53;;;;;;;12.45;8.98;;;18.50;93.40;;;;;;5045182;28;20545;-58
2021/07/19 02:35:19;;;;;;;13.85;9.18;;;18.40;93.50;;;;;;5026544;28;20032;-59
2021/07/19 02:37:47;;;;;;;12.65;8.65;;;18.40;93.60;;;;;;5041654;28;20440;-56
2021/07/19 02:40:16;;;;;;;13.73;9.25;;;18.40;93.60;;;;;;5042510;28;20021;-59
2021/07/19 02:42:45;;;;;;;13.18;9.50;;;18.50;93.40;;;;;;5044781;28;20025;-59
2021/07/19 02:45:15;;;;;;;15.05;9.15;;;18.50;93.30;;;;;;5044274;28;20240;-57
2021/07/19 02:47:45;;;;;;;13.77;9.27;;;18.50;93.10;;;;;;5044219;28;20033;-57
2021/07/19 02:50:13;;;;;;;11.32;8.65;;;18.40;93.30;;;;;;5044291;28;20025;-60
2021/07/19 02:52:41;;;;;;;14.05;9.98;;;18.40;93.20;;;;;;5045111;28;20036;-59
2021/07/19 02:55:07;;;;;;;13.13;9.45;;;18.60;93.00;;;;;;5043952;28;20048;-60
2021/07/19 02:57:37;;;;;;;13.18;9.68;;;18.60;92.60;;;;;;5045464;28;20025;-60
2021/07/19 03:00:14;;;;;;;12.43;8.88;;;18.60;92.40;;;;;;5044628;28;20059;-58
2021/07/19 03:02:44;;;;;;;15.90;9.55;;;18.50;91.60;;;;;;5045085;28;20072;-59
2021/07/19 03:05:12;;;;;;;15.73;8.35;;;18.20;91.50;;;;;;5043470;28;20033;-58
2021/07/19 03:07:39;;;;;;;10.98;7.80;;;17.90;91.10;;;;;;5044148;28;20029;-60
2021/07/19 03:10:08;;;;;;;16.42;8.52;;;17.80;91.10;;;;;;5042605;28;20033;-60
2021/07/19 03:12:37;;;;;;;23.55;9.70;;;17.70;91.10;;;;;;5043324;28;20037;-59
2021/07/19 03:15:05;;;;;;;21.08;8.88;;;17.70;90.70;;;;;;5044252;28;20087;-57
2021/07/19 03:17:31;;;;;;;15.05;8.45;;;17.60;90.50;;;;;;5041768;28;20043;-58
2021/07/19 03:19:58;;;;;;;15.25;8.00;;;17.50;90.30;;;;;;5044461;28;20029;-58
2021/07/19 03:22:26;;;;;;;13.80;8.02;;;17.60;90.20;;;;;;5043662;28;20025;-57
2021/07/19 03:24:54;;;;;;;12.88;7.85;;;17.40;89.30;;;;;;5043740;28;20057;-60
2021/07/19 03:27:23;;;;;;;15.48;8.00;;;17.30;89.60;;;;;;5024135;28;20033;-60
2021/07/19 03:29:51;;;;;;;22.20;8.88;;;17.40;89.60;;;;;;5043044;28;20089;-60
2021/07/19 03:32:19;;;;;;;15.15;8.10;;;17.30;89.50;;;;;;5044208;28;20047;-59
2021/07/19 03:34:45;;;;;;;20.10;7.90;;;17.40;89.70;;;;;;5042533;28;20533;-59
2021/07/19 03:37:11;;;;;;;15.23;7.80;;;17.50;89.30;;;;;;5042200;28;20033;-60
2021/07/19 03:39:39;;;;;;;15.20;7.80;;;17.50;88.90;;;;;;5041350;28;20061;-60
2021/07/19 03:42:06;;;;;;;18.23;8.23;;;17.50;88.40;;;;;;5043445;28;20039;-58
2021/07/19 03:44:35;;;;;;;14.68;8.15;;;17.40;88.70;;;;;;5042956;28;20107;-60
2021/07/19 03:47:01;;;;;;;16.00;7.75;;;17.40;88.70;;;;;;5041236;28;20049;-57
2021/07/19 03:49:27;;;;;;;14.60;7.20;;;17.30;88.50;;;;;;5042782;28;20020;-58
2021/07/19 03:51:53;;;;;;;16.25;8.38;;;17.30;89.00;;;;;;5024512;28;20546;-58
2021/07/19 03:54:19;;;;;;;16.40;7.00;;;17.30;89.10;;;;;;5046331;28;20036;-59
2021/07/19 03:56:44;;;;;;;16.67;7.18;;;17.40;88.70;;;;;;5041627;28;20075;-61
2021/07/19 03:59:12;;;;;;;15.32;8.40;;;17.40;87.90;;;;;;5042091;28;20033;-59
2021/07/19 04:01:39;;;;;;;15.82;8.13;;;17.30;88.40;;;;;;5043590;28;20542;-61
2021/07/19 04:04:08;;;;;;;17.13;8.18;;;17.20;88.50;;;;;;5041928;28;20040;-60
2021/07/19 04:06:34;;;;;;;14.45;7.13;;;17.10;88.50;;;;;;5041805;28;20037;-60
2021/07/19 04:09:00;;;;;;;20.63;8.88;;;17.00;88.80;;;;;;5042894;28;20052;-58
2021/07/19 04:11:27;;;;;;;18.08;7.95;;;17.00;88.70;;;;;;5041415;28;20041;-60
2021/07/19 04:13:54;;;;;;;15.93;7.65;;;17.00;88.80;;;;;;5042507;28;20033;-61
2021/07/19 04:16:21;;;;;;;18.02;8.35;;;17.10;88.60;;;;;;5041387;28;20393;-60
2021/07/19 04:18:47;;;;;;;18.55;8.20;;;17.10;88.20;;;;;;5042806;28;20033;-61
2021/07/19 04:21:13;;;;;;;14.50;7.55;;;17.20;88.30;;;;;;5039654;28;20082;-60
2021/07/19 04:23:39;;;;;;;19.45;8.82;;;17.20;88.00;;;;;;5042538;28;20025;-60
2021/07/19 04:26:05;;;;;;;18.30;8.32;;;17.30;87.90;;;;;;5039065;28;20063;-61
2021/07/19 04:28:34;;;;;;;16.30;7.50;;;17.30;87.60;;;;;;5041083;28;20499;-59
2021/07/19 04:31:00;;;;;;;16.90;7.57;;;17.30;87.50;;;;;;5042802;28;20037;-61
2021/07/19 04:33:26;;;;;;;21.17;9.27;;;17.40;87.30;;;;;;5041193;28;20084;-59
2021/07/19 04:35:52;;;;;;;18.30;7.30;;;17.40;87.60;;;;;;5041385;28;20060;-59
2021/07/19 04:38:23;;;;;;;17.08;8.02;;;17.40;87.80;;;;;;5042727;28;20041;-60
2021/07/19 04:40:52;;;;;;;14.50;7.68;;;17.40;87.60;;;;;;5041784;28;20037;-62
2021/07/19 04:43:18;;;;;;;12.80;7.50;;;17.20;88.10;;;;;;5041728;28;20093;-61
2021/07/19 04:45:48;;;;;;;20.85;7.85;;;17.30;88.30;;;;;;5043376;28;20024;-60
2021/07/19 04:48:15;;;;;;;14.90;7.85;;;17.30;88.00;;;;;;5041057;28;20032;-60
2021/07/19 04:50:41;;;;;;;13.93;7.63;;;17.30;87.90;;;;;;5042849;28;20507;-60
2021/07/19 04:53:07;;;;;;;17.63;8.02;;;17.40;87.70;;;;;;5046091;28;20029;-60
2021/07/19 04:55:34;;;;;;;16.08;8.05;;;17.60;87.50;;;;;;5040968;28;20033;-60
2021/07/19 04:58:01;;;;;;;19.95;8.57;;;17.60;87.50;;;;;;5025183;28;20053;-57
2021/07/19 05:00:29;;;;;;;14.85;8.98;;;17.60;87.10;;;;;;5040861;28;20026;-59
2021/07/19 05:02:56;;;;;;;17.13;9.27;;;17.60;87.50;;;;;;5042048;28;20067;-60
2021/07/19 05:05:25;;;;;;;15.23;8.88;;;17.70;87.30;;;;;;5043466;28;20028;-59
2021/07/19 05:07:52;;;;;;;15.13;8.20;;;17.50;87.80;;;;;;5042462;28;20044;-60
2021/07/19 05:10:19;;;;;;;13.27;8.55;;;17.60;87.80;;;;;;5026407;28;20758;-61
2021/07/19 05:12:51;;;;;;;14.98;10.23;;;17.60;87.20;;;;;;5041569;28;20035;-60
2021/07/19 05:15:17;;;;;;;17.10;8.80;;;17.70;87.40;;;;;;5042555;28;20060;-60
2021/07/19 05:17:43;;;;;;;17.05;9.60;;;17.70;87.40;;;;;;5041301;28;20059;-58
2021/07/19 05:20:15;;;;;;;16.92;8.23;;;17.60;88.00;;;;;;5043327;28;20040;-58
2021/07/19 05:22:49;;;;;;;13.63;8.02;;;17.40;88.50;;;;;;5040007;28;20033;-58
2021/07/19 05:25:15;;;;;;;19.77;8.13;;;17.50;88.20;;;;;;5040439;28;20036;-62
2021/07/19 05:28:09;;;;;;;16.92;8.60;;;17.40;88.90;;;;;;5042772;28;20085;-58
2021/07/19 05:30:37;;;;;;;16.15;7.75;;;17.30;89.50;;;;;;5039180;28;20040;-58
2021/07/19 05:33:03;;;;;;;12.93;7.88;;;17.10;89.80;;;;;;5043210;28;20033;-59
2021/07/19 05:35:30;;;;;;;17.92;8.00;;;17.20;89.60;;;;;;5024763;28;20083;-60
2021/07/19 05:37:55;;;;;;;20.88;8.70;;;17.30;89.50;;;;;;5040489;28;20057;-60
2021/07/19 05:40:21;;;;;;;18.45;7.97;;;17.30;89.60;;;;;;5043927;28;20550;-59
2021/07/19 05:42:46;;;;;;;13.77;7.38;;;17.40;88.90;;;;;;5044230;28;20035;-61
2021/07/19 05:45:13;;;;;;;15.38;7.43;;;17.40;89.10;;;;;;5044745;28;20024;-60
2021/07/19 05:47:39;;;;;;;16.90;7.13;;;17.30;87.80;;;;;;5046319;28;20065;-61
2021/07/19 05:50:06;;;;;;;15.77;7.28;;;17.20;88.60;;;;;;5045423;28;20091;-61
2021/07/19 05:52:32;;;;;;;14.88;7.53;;;17.20;88.50;;;;;;5046405;28;20111;-59
2021/07/19 05:54:58;;;;;;;11.38;7.22;;;17.30;88.50;;;;;;5046965;28;20040;-59
2021/07/19 05:57:27;;;;;;;14.10;7.38;;;17.30;88.10;;;;;;5043443;28;20469;-58
2021/07/19 05:59:56;;;;;;;15.35;7.45;;;17.50;88.00;;;;;;5044940;28;20510;-60
2021/07/19 06:02:23;;;;;;;18.42;7.50;;;17.40;88.20;;;;;;5046455;28;20033;-57
2021/07/19 06:04:48;;;;;;;13.73;7.22;;;17.60;88.20;;;;;;5044459;28;20060;-58
2021/07/19 06:07:14;;;;;;;14.95;7.60;;;17.50;88.10;;;;;;5045004;28;20029;-57
2021/07/19 06:09:40;;;;;;;12.52;7.20;;;17.60;87.70;;;;;;5046042;28;20105;-59
2021/07/19 06:12:05;;;;;;;18.98;7.60;;;17.60;87.60;;;;;;5044114;28;20057;-59
2021/07/19 06:14:31;;;;;;;12.27;7.22;;;17.60;87.30;;;;;;5044486;28;20033;-61
2021/07/19 06:16:57;;;;;;;15.85;7.80;;;17.80;87.00;;;;;;5044017;28;20389;-61
2021/07/19 06:19:22;;;;;;;13.15;6.85;;;17.80;87.20;;;;;;5045471;28;20477;-59
2021/07/19 06:21:48;;;;;;;12.77;6.70;;;17.70;85.50;;;;;;5045862;28;20116;-61
2021/07/19 06:24:13;;;;;;;14.30;6.72;;;17.80;85.80;;;;;;5044693;28;20041;-61
2021/07/19 06:26:39;;;;;;;14.38;6.82;;;17.90;85.90;;;;;;5043372;28;20053;-59
2021/07/19 06:29:05;;;;;;;13.27;6.93;;;17.90;85.80;;;;;;5045859;28;20444;-56
2021/07/19 06:31:31;;;;;;;14.00;7.22;;;18.00;85.40;;;;;;5044370;28;20053;-60
2021/07/19 06:33:57;;;;;;;13.80;7.43;;;18.10;84.90;;;;;;5044264;28;20028;-59
2021/07/19 06:36:23;;;;;;;12.80;7.13;;;18.20;85.20;;;;;;5045159;28;20183;-60
2021/07/19 06:38:49;;;;;;;16.15;6.97;;;18.20;85.30;;;;;;5043347;28;20028;-57
2021/07/19 06:41:14;;;;;;;12.05;7.10;;;18.30;85.40;;;;;;5045226;28;20040;-61
2021/07/19 06:43:40;;;;;;;15.15;7.50;;;18.50;84.70;;;;;;5043651;28;20041;-59
2021/07/19 06:46:06;;;;;;;12.68;6.85;;;18.50;84.50;;;;;;5027731;28;20072;-58
2021/07/19 06:48:33;;;;;;;21.52;11.85;;;18.70;84.00;;;;;;5044006;28;20040;-59
2021/07/19 06:50:59;;;;;;;18.58;9.00;;;18.70;84.20;;;;;;5052011;28;20033;-60
2021/07/19 06:53:24;;;;;;;15.50;9.25;;;18.90;83.50;;;;;;5048410;28;20039;-60
2021/07/19 06:55:50;;;;;;;11.93;7.60;;;19.00;83.80;;;;;;5042646;28;20136;-61
2021/07/19 06:58:15;;;;;;;15.32;7.32;;;19.10;82.80;;;;;;5044553;28;20037;-60
2021/07/19 07:00:41;;;;;;;12.88;7.47;;;19.10;83.30;;;;;;5041865;28;20041;-61
2021/07/19 07:03:06;;;;;;;16.35;7.88;;;19.20;82.80;;;;;;5051271;28;20370;-61
2021/07/19 07:05:32;;;;;;;16.15;8.48;;;19.30;82.90;;;;;;5040995;28;20036;-59
2021/07/19 07:07:57;;;;;;;14.63;8.90;;;19.30;82.80;;;;;;5046520;28;20029;-60
2021/07/19 07:10:23;;;;;;;12.40;7.60;;;19.40;82.80;;;;;;5045400;28;20428;-61
2021/07/19 07:12:49;;;;;;;17.60;8.77;;;19.50;82.40;;;;;;5047085;28;20492;-60
2021/07/19 07:15:14;;;;;;;14.98;7.57;;;19.30;82.90;;;;;;5045571;28;20033;-60
2021/07/19 07:17:41;;;;;;;16.27;7.70;;;18.70;82.10;;;;;;5044886;28;20049;-60
2021/07/19 07:20:11;;;;;;;15.13;7.38;;;18.50;83.40;;;;;;5043683;28;20042;-60
2021/07/19 07:22:36;;;;;;;14.93;7.80;;;18.40;84.00;;;;;;5042639;28;20439;-56
2021/07/19 07:25:04;;;;;;;16.63;7.82;;;18.50;84.40;;;;;;5044249;28;20040;-59
2021/07/19 07:27:30;;;;;;;15.02;7.90;;;18.50;84.70;;;;;;5043152;28;20536;-57
2021/07/19 07:29:56;;;;;;;15.90;7.88;;;18.50;83.70;;;;;;5043786;28;20024;-60
2021/07/19 07:32:21;;;;;;;12.30;8.10;;;18.30;83.40;;;;;;5048423;28;20044;-60
2021/07/19 07:34:47;;;;;;;17.48;8.40;;;18.20;84.70;;;;;;5046941;28;20052;-60
2021/07/19 07:37:12;;;;;;;13.05;7.78;;;18.20;84.40;;;;;;5049516;28;20103;-59
2021/07/19 07:39:42;;;;;;;14.50;8.13;;;18.40;82.30;;;;;;5041629;28;20125;-61
2021/07/19 07:42:09;;;;;;;14.45;8.02;;;18.50;82.00;;;;;;5051461;28;20029;-59
2021/07/19 07:44:35;;;;;;;15.68;8.25;;;18.50;82.50;;;;;;5049108;28;20087;-60
2021/07/19 07:47:01;;;;;;;10.90;7.25;;;18.40;83.20;;;;;;5049562;28;20071;-60
2021/07/19 07:49:26;;;;;;;14.50;8.30;;;18.40;82.40;;;;;;5047115;28;20504;-60
2021/07/19 07:51:53;;;;;;;15.25;8.38;;;18.40;82.70;;;;;;5047315;28;20033;-60
2021/07/19 07:54:20;;;;;;;12.82;8.98;;;18.50;83.20;;;;;;5047081;28;20440;-60
2021/07/19 07:56:49;;;;;;;9.68;8.05;;;18.60;80.80;;;;;;5031043;28;20049;-60
2021/07/19 07:59:15;;;;;;;13.15;8.02;;;18.70;80.70;;;;;;5028964;28;20064;-60
2021/07/19 08:01:40;;;;;;;10.77;7.70;;;18.70;78.40;;;;;;5046980;28;20042;-60
2021/07/19 08:04:06;;;;;;;13.20;8.25;;;18.60;76.90;;;;;;5045348;28;20025;-61
2021/07/19 08:06:31;;;;;;;12.77;7.93;;;18.60;77.60;;;;;;5040639;28;20022;-60
2021/07/19 08:08:57;;;;;;;13.30;8.32;;;18.60;77.20;;;;;;5043484;28;20024;-60
2021/07/19 08:11:22;;;;;;;12.88;7.63;;;18.60;75.50;;;;;;5043203;28;20057;-60
2021/07/19 08:13:48;;;;;;;9.15;7.07;;;18.60;76.50;;;;;;5043961;28;20034;-59
2021/07/19 08:16:13;;;;;;;9.05;6.97;;;18.60;75.50;;;;;;5043977;28;20107;-59
2021/07/19 08:18:39;;;;;;;8.80;6.47;;;18.70;74.10;;;;;;5041521;28;20025;-59
2021/07/19 08:21:05;;;;;;;13.68;7.00;;;18.90;75.20;;;;;;5044207;28;20021;-61
2021/07/19 08:23:30;;;;;;;12.90;6.90;;;19.00;75.40;;;;;;5043272;28;20039;-58
2021/07/19 08:25:56;;;;;;;9.68;6.50;;;19.00;74.70;;;;;;5040391;28;20120;-59
2021/07/19 08:28:21;;;;;;;10.02;6.00;;;19.00;75.30;;;;;;5044626;28;20033;-59
2021/07/19 08:30:47;;;;;;;10.68;6.80;;;18.90;75.80;;;;;;5026524;28;20409;-60
2021/07/19 08:33:13;;;;;;;11.15;6.53;;;19.10;75.00;;;;;;5040838;28;20037;-61
2021/07/19 08:35:38;;;;;;;11.73;6.00;;;19.10;73.10;;;;;;5042666;28;20028;-59
2021/07/19 08:38:04;;;;;;;8.93;6.20;;;19.00;73.90;;;;;;5042880;28;20397;-61
2021/07/19 08:40:30;;;;;;;11.93;5.85;;;19.00;74.70;;;;;;5041390;28;20479;-59
2021/07/19 08:42:55;;;;;;;10.23;5.78;;;19.20;75.70;;;;;;5042981;28;20025;-60
2021/07/19 08:45:22;;;;;;;11.45;6.68;;;19.20;74.40;;;;;;5041851;28;20091;-61
2021/07/19 08:47:49;;;;;;;8.88;5.72;;;19.30;74.60;;;;;;5041385;28;20106;-59
2021/07/19 08:50:16;;;;;;;9.23;6.00;;;19.20;74.10;;;;;;5042371;28;20047;-61
2021/07/19 08:52:42;;;;;;;11.13;5.38;;;19.10;74.80;;;;;;5026597;28;20037;-60
2021/07/19 08:55:11;;;;;;;10.65;5.65;;;19.10;74.00;;;;;;5043257;28;20028;-57
2021/07/19 08:57:40;;;;;;;11.45;6.05;;;18.90;74.50;;;;;;5042612;28;20041;-59
2021/07/19 09:00:07;;;;;;;13.18;5.88;;;18.90;74.50;;;;;;5041991;28;20026;-60
2021/07/19 09:02:33;;;;;;;13.02;6.13;;;19.00;74.70;;;;;;5040857;28;20029;-58
2021/07/19 09:04:59;;;;;;;9.88;5.53;;;19.20;74.80;;;;;;5041652;28;20420;-60
2021/07/19 09:07:25;;;;;;;11.13;5.07;;;19.20;74.10;;;;;;5040833;28;20040;-61
2021/07/19 09:09:52;;;;;;;9.75;5.15;;;19.20;71.90;;;;;;5042387;28;20132;-60
2021/07/19 09:12:30;;;;;;;9.15;5.30;;;19.40;72.10;;;;;;5041205;28;20091;-59
2021/07/19 09:14:56;;;;;;;10.70;5.18;;;19.40;72.80;;;;;;5043998;28;20025;-56
2021/07/19 09:17:24;;;;;;;9.20;5.35;;;19.60;72.70;;;;;;5045536;28;20478;-61
2021/07/19 09:19:50;;;;;;;11.25;6.07;;;19.50;73.00;;;;;;5049178;28;20098;-60
2021/07/19 09:22:28;;;;;;;8.68;5.60;;;19.40;73.00;;;;;;5044778;28;20374;-57
2021/07/19 09:25:09;;;;;;;12.02;6.32;;;19.50;73.50;;;;;;5044081;28;20029;-62
2021/07/19 09:27:34;;;;;;;11.48;5.53;;;19.70;71.70;;;;;;5046731;28;20025;-59
2021/07/19 09:30:16;;;;;;;9.68;5.18;;;19.80;71.80;;;;;;5046112;28;20392;-58
2021/07/19 09:32:53;;;;;;;9.07;5.35;;;19.70;71.70;;;;;;5046912;28;20448;-59
2021/07/19 09:35:19;;;;;;;8.77;5.55;;;19.60;72.60;;;;;;5046328;28;20062;-59
2021/07/19 09:37:44;;;;;;;8.52;5.45;;;19.80;71.50;;;;;;5046698;28;20060;-57
2021/07/19 09:40:10;;;;;;;10.02;5.03;;;19.80;71.50;;;;;;5044579;28;20042;-61
2021/07/19 09:42:42;;;;;;;9.15;4.93;;;19.90;71.90;;;;;;5028953;28;20108;-60
2021/07/19 09:45:08;;;;;;;8.52;4.93;;;20.20;71.40;;;;;;5046702;28;20036;-54
2021/07/19 09:47:37;;;;;;;9.60;4.63;;;20.00;70.60;;;;;;5042833;28;20132;-59
2021/07/19 09:50:12;;;;;;;8.77;4.63;;;19.80;70.90;;;;;;5044271;28;20116;-57
2021/07/19 09:52:38;;;;;;;10.63;5.22;;;19.70;71.70;;;;;;5029831;28;20041;-61
2021/07/19 09:55:04;;;;;;;11.40;4.75;;;19.80;71.90;;;;;;5045901;28;20503;-60
2021/07/19 09:57:30;;;;;;;9.80;4.78;;;20.00;71.20;;;;;;5042656;28;20029;-60
2021/07/19 09:59:58;;;;;;;9.68;4.50;;;20.40;70.70;;;;;;5047232;28;20032;-61
2021/07/19 10:02:41;;;;;;;7.05;4.30;;;20.20;69.40;;;;;;5050160;28;20014;-61
2021/07/19 10:05:09;;;;;;;9.68;4.55;;;20.50;69.50;;;;;;5045786;28;20025;-61
2021/07/19 10:07:35;;;;;;;10.35;5.10;;;20.30;70.10;;;;;;5024472;28;20036;-61
2021/07/19 10:10:06;;;;;;;9.25;4.50;;;20.40;70.40;;;;;;5044127;28;20037;-60
2021/07/19 10:12:32;;;;;;;11.77;4.93;;;20.50;70.70;;;;;;5049858;28;20082;-57
2021/07/19 10:14:59;;;;;;;8.00;4.85;;;20.30;70.70;;;;;;5044769;28;20041;-61
2021/07/19 10:17:25;;;;;;;10.63;4.85;;;20.10;71.10;;;;;;5043524;28;20083;-58
2021/07/19 10:19:56;;;;;;;8.27;5.22;;;19.90;71.90;;;;;;5047650;28;20477;-60
2021/07/19 10:22:22;;;;;;;13.32;5.00;;;20.00;71.50;;;;;;5044567;28;20079;-59
2021/07/19 10:24:47;;;;;;;10.73;4.97;;;20.00;71.20;;;;;;5042023;28;20508;-58
2021/07/19 10:27:21;;;;;;;8.13;4.20;;;20.10;70.70;;;;;;5026380;28;20538;-58
2021/07/19 10:29:49;;;;;;;7.70;4.68;;;20.10;70.50;;;;;;5043696;28;20064;-59
2021/07/19 10:32:18;;;;;;;10.38;4.75;;;20.00;71.20;;;;;;5027222;28;20033;-61
2021/07/19 10:34:52;;;;;;;10.75;4.93;;;20.20;70.30;;;;;;5050917;28;20051;-60
2021/07/19 10:37:32;;;;;;;9.68;5.57;;;20.20;70.70;;;;;;5041813;28;20036;-60
2021/07/19 10:39:59;;;;;;;8.25;5.28;;;20.20;70.60;;;;;;5048685;28;20032;-60
2021/07/19 10:42:35;;;;;;;6.70;4.53;;;20.30;71.10;;;;;;5043231;28;20033;-60
2021/07/19 10:47:56;;;;;;;7.60;4.55;;;20.20;70.40;;;;;;5110439;27;20475;-59
2021/07/19 10:50:27;;;;;;;8.02;5.38;;;20.20;70.30;;;;;;5087979;28;20096;-60
2021/07/19 10:53:00;;;;;;;10.00;4.88;;;20.00;70.40;;;;;;5089006;28;20025;-60
2021/07/19 10:55:33;;;;;;;6.88;4.75;;;20.50;69.50;;;;;;5087581;28;20059;-59
2021/07/19 10:58:07;;;;;;;13.90;4.95;;;20.70;68.60;;;;;;5087934;28;20029;-58
2021/07/19 11:00:44;;;;;;;12.63;5.03;;;20.80;69.70;;;;;;5090656;28;20407;-60
2021/07/19 11:03:11;;;;;;;11.73;5.07;;;20.80;69.00;;;;;;5086255;28;20032;-60
2021/07/19 11:05:44;;;;;;;6.72;4.85;;;20.60;69.30;;;;;;5088409;28;20021;-59
2021/07/19 11:08:24;;;;;;;9.25;4.30;;;20.50;68.30;;;;;;5089290;28;20036;-62
2021/07/19 11:10:51;;;;;;;7.05;4.57;;;20.40;68.60;;;;;;5088319;28;20020;-60
2021/07/19 11:13:27;;;;;;;9.80;4.60;;;20.70;68.60;;;;;;5091408;28;20024;-59
2021/07/19 11:15:53;;;;;;;13.65;4.57;;;20.90;68.80;;;;;;5089251;28;20043;-60
2021/07/19 11:18:29;;;;;;;9.00;4.55;;;20.90;68.70;;;;;;5086665;28;20082;-60
2021/07/19 11:20:57;;;;;;;10.57;4.68;;;20.90;68.70;;;;;;5090202;28;20028;-58
2021/07/19 11:23:37;;;;;;;10.65;4.53;;;21.00;69.20;;;;;;5091846;28;20108;-59
2021/07/19 11:26:22;;;;;;;9.63;5.13;;;20.80;68.90;;;;;;5087827;28;20024;-61
2021/07/19 11:28:48;;;;;;;11.20;4.63;;;20.50;69.70;;;;;;5088088;28;20028;-58
2021/07/19 11:31:15;;;;;;;10.13;5.03;;;20.70;69.20;;;;;;5087661;28;20074;-60
2021/07/19 11:33:49;;;;;;;11.57;5.20;;;20.60;69.90;;;;;;5086193;28;20052;-60
2021/07/19 11:36:22;;;;;;;9.57;5.50;;;20.40;70.10;;;;;;5088387;28;20032;-59
2021/07/19 11:38:49;;;;;;;12.37;5.73;;;20.40;71.00;;;;;;5088171;28;20515;-60
2021/07/19 11:41:15;;;;;;;7.90;5.10;;;20.60;70.10;;;;;;5088115;28;20470;-58
2021/07/19 11:43:42;;;;;;;11.35;6.78;;;20.80;70.10;;;;;;5088221;28;20032;-58
2021/07/19 11:46:08;;;;;;;8.73;5.40;;;20.90;70.50;;;;;;5087675;28;20137;-58
2021/07/19 11:48:35;;;;;;;7.97;5.18;;;21.00;69.30;;;;;;5088270;28;20031;-60
2021/07/19 11:51:01;;;;;;;7.95;5.70;;;21.00;68.30;;;;;;5085794;28;20029;-57
2021/07/19 11:53:26;;;;;;;8.27;5.40;;;21.10;70.00;;;;;;5087546;28;20039;-59
2021/07/19 11:55:52;;;;;;;8.40;5.40;;;20.50;70.40;;;;;;5087720;28;20028;-60
2021/07/19 11:58:18;;;;;;;12.10;5.95;;;20.60;71.00;;;;;;5079672;28;20037;-59
2021/07/19 12:00:45;;;;;;;14.32;5.95;;;20.50;70.20;;;;;;5075388;28;20024;-58
2021/07/19 12:03:17;;;;;;;10.60;6.00;;;20.60;70.40;;;;;;5075037;28;20480;-59
2021/07/19 12:05:54;;;;;;;8.38;5.22;;;20.90;70.10;;;;;;5072323;28;20048;-59
2021/07/19 12:08:34;;;;;;;7.82;5.10;;;21.10;70.20;;;;;;5074483;28;20098;-57
2021/07/19 12:11:05;;;;;;;11.38;5.70;;;21.20;69.90;;;;;;5074698;28;20090;-58
2021/07/19 12:13:39;;;;;;;9.35;6.38;;;21.40;69.20;;;;;;5074309;28;20035;-61
2021/07/19 12:16:05;;;;;;;10.48;6.30;;;21.10;68.30;;;;;;5071640;28;20086;-58
2021/07/19 12:18:39;;;;;;;9.50;5.80;;;21.10;68.90;;;;;;5073914;28;20047;-57
2021/07/19 12:21:11;;;;;;;11.80;5.07;;;21.10;68.20;;;;;;5072871;28;20029;-59
2021/07/19 12:23:51;;;;;;;8.35;5.00;;;21.10;68.60;;;;;;5074585;28;20061;-60
2021/07/19 12:26:30;;;;;;;8.65;5.20;;;21.30;68.30;;;;;;5072487;28;20024;-58
2021/07/19 12:29:17;;;;;;;9.48;5.15;;;21.50;67.50;;;;;;5072985;28;20032;-61
2021/07/19 12:31:48;;;;;;;10.02;5.45;;;21.60;66.90;;;;;;5070738;28;20103;-61
2021/07/19 12:34:16;;;;;;;7.68;4.70;;;21.70;67.20;;;;;;5074623;28;20017;-59
2021/07/19 12:36:52;;;;;;;10.77;5.82;;;21.40;68.20;;;;;;5071570;28;20647;-59
2021/07/19 12:39:21;;;;;;;13.80;6.15;;;21.50;68.20;;;;;;5073630;28;20119;-59
2021/07/19 12:41:48;;;;;;;9.90;5.80;;;21.10;67.60;;;;;;5074238;28;20561;-59
2021/07/19 12:44:14;;;;;;;8.65;5.03;;;20.90;68.50;;;;;;5075116;28;20472;-59
2021/07/19 12:46:45;;;;;;;11.57;5.32;;;21.40;67.90;;;;;;5073251;28;20044;-57